Auburndale, Florida
Current Conditions -  °F | °C
As of 8:53 AM on Saturday 22 Nov 2014 (Local Time) from KGIF Reporting Station
Overcast Overcast  
Wind Chill: 67°   Ceiling: 3000
Heat Index: 67°   Visibility: 10mi
Dew Point: 64°   Wind: 9mph
Humidity: 90%   Direction: 70°ENE
Pressure: 30.26"   Gusts: NA
Location:  28.06°N, 81.78°W
Report Text: KGIF 221353Z AUTO 07008KT 10SM OVC030 19/18 A3026 RMK AO2 RAE11 SLP243 P0000 T01940178
Loading
Personal Weather Stations






























Interactive Weather Map New forecast layout! Learn more

10-Day Weather Forecast

Advertisements
Track Severe Weather on mobile